Time;durP1;ratioP1;P1;durP2;ratioP2;P2;SDS_P1;SDS_P2;PMS_P1;PMS_P2;Temp;Humidity;BMP_temperature;BMP_pressure;BME280_temperature;BME280_humidity;BME280_pressure;Samples;Min_cycle;Max_cycle;Signal;HPM_P1;HPM_P2
2022/02/21 00:00:13;;;;;;;67.28;46.53;;;;;;;;;;5026695;28;82476;-74
2022/02/21 00:02:43;;;;;;;71.40;46.03;;;;;;;;;;5025607;28;84266;-72
2022/02/21 00:05:14;;;;;;;57.25;44.85;;;;;;;;;;5026211;28;84545;-71
2022/02/21 00:07:44;;;;;;;62.25;45.72;;;;;;;;;;5021290;28;84980;-72
2022/02/21 00:10:12;;;;;;;68.55;46.97;;;;;;;;;;5020937;28;82527;-72
2022/02/21 00:12:41;;;;;;;65.30;44.55;;;;;;;;;;5021696;28;85005;-75
2022/02/21 00:15:10;;;;;;;65.47;46.05;;;;;;;;;;5025757;28;85746;-75
2022/02/21 00:17:37;;;;;;;61.47;46.03;;;;;;;;;;5027433;28;84492;-75
2022/02/21 00:20:07;;;;;;;54.95;41.75;;;;;;;;;;5025723;28;82608;-74
2022/02/21 00:22:34;;;;;;;50.75;38.38;;;;;;;;;;5026065;28;84487;-74
2022/02/21 00:25:03;;;;;;;56.90;40.38;;;;;;;;;;5025633;28;85748;-74
2022/02/21 00:27:31;;;;;;;66.13;45.95;;;;;;;;;;5025881;28;84654;-74
2022/02/21 00:29:58;;;;;;;75.97;52.30;;;;;;;;;;5025897;28;82549;-74
2022/02/21 00:32:26;;;;;;;58.40;43.42;;;;;;;;;;5026138;28;85020;-74
2022/02/21 00:34:54;;;;;;;51.65;37.80;;;;;;;;;;5027160;28;85069;-74
2022/02/21 00:37:21;;;;;;;52.80;38.10;;;;;;;;;;5027219;28;83762;-74
2022/02/21 00:39:49;;;;;;;59.92;43.30;;;;;;;;;;5025959;28;82724;-74
2022/02/21 00:42:21;;;;;;;69.95;50.85;;;;;;;;;;5027051;28;84452;-74
2022/02/21 00:44:51;;;;;;;65.50;47.15;;;;;;;;;;5027578;28;83965;-74
2022/02/21 00:47:18;;;;;;;68.40;47.63;;;;;;;;;;5025998;28;85669;-74
2022/02/21 00:49:45;;;;;;;70.32;50.85;;;;;;;;;;5026040;28;82356;-73
2022/02/21 00:52:13;;;;;;;66.40;48.97;;;;;;;;;;5025018;28;84077;-73
2022/02/21 00:54:40;;;;;;;67.22;49.42;;;;;;;;;;5027005;28;84134;-73
2022/02/21 00:57:07;;;;;;;70.85;48.97;;;;;;;;;;5026182;28;84641;-73
2022/02/21 00:59:35;;;;;;;64.97;45.05;;;;;;;;;;5025984;28;82325;-74
2022/02/21 01:02:02;;;;;;;60.58;42.60;;;;;;;;;;5026675;28;85544;-73
2022/02/21 01:04:29;;;;;;;60.45;46.35;;;;;;;;;;5026471;28;85002;-73
2022/02/21 01:06:57;;;;;;;59.60;43.42;;;;;;;;;;5025036;28;84668;-74
2022/02/21 01:09:24;;;;;;;58.85;43.45;;;;;;;;;;5025452;28;82633;-75
2022/02/21 01:11:52;;;;;;;55.17;38.85;;;;;;;;;;5025171;28;84391;-75
2022/02/21 01:14:19;;;;;;;54.40;38.83;;;;;;;;;;5024940;28;85389;-75
2022/02/21 01:16:47;;;;;;;58.08;44.13;;;;;;;;;;5024793;28;83366;-75
2022/02/21 01:19:15;;;;;;;62.33;43.13;;;;;;;;;;5025038;28;82453;-74
2022/02/21 01:21:42;;;;;;;68.20;45.92;;;;;;;;;;5025468;28;83977;-74
2022/02/21 01:24:10;;;;;;;63.85;44.67;;;;;;;;;;5026053;28;85232;-74
2022/02/21 01:26:38;;;;;;;62.17;43.85;;;;;;;;;;5027027;28;83541;-74
2022/02/21 01:29:06;;;;;;;60.05;42.72;;;;;;;;;;5025425;28;82472;-74
2022/02/21 01:31:33;;;;;;;56.85;42.90;;;;;;;;;;5025083;28;84761;-74
2022/02/21 01:34:01;;;;;;;55.88;38.80;;;;;;;;;;5025342;28;85621;-74
2022/02/21 01:36:29;;;;;;;43.85;35.28;;;;;;;;;;5024447;28;84669;-74
2022/02/21 01:38:56;;;;;;;43.75;37.05;;;;;;;;;;5026513;28;82285;-73
2022/02/21 01:41:23;;;;;;;40.55;32.50;;;;;;;;;;5024424;28;84654;-73
2022/02/21 01:44:08;;;;;;;43.85;32.50;;;;;;;;;;5025210;28;84938;-72
2022/02/21 01:46:36;;;;;;;57.80;39.00;;;;;;;;;;5025098;28;84665;-75
2022/02/21 01:49:04;;;;;;;46.95;34.55;;;;;;;;;;5026107;28;82406;-73
2022/02/21 01:51:34;;;;;;;48.33;37.63;;;;;;;;;;5025657;28;82399;-74
2022/02/21 01:54:05;;;;;;;43.35;34.88;;;;;;;;;;5026182;28;86344;-74
2022/02/21 01:56:34;;;;;;;46.25;35.22;;;;;;;;;;5025875;28;85108;-74
2022/02/21 01:59:03;;;;;;;52.92;39.08;;;;;;;;;;5025035;28;82553;-74
2022/02/21 02:01:30;;;;;;;52.10;39.22;;;;;;;;;;5025508;28;83294;-76
2022/02/21 02:03:59;;;;;;;45.45;35.28;;;;;;;;;;5025853;28;85482;-74
2022/02/21 02:06:28;;;;;;;37.42;30.73;;;;;;;;;;5005742;28;85598;-73
2022/02/21 02:08:57;;;;;;;43.53;33.47;;;;;;;;;;5023731;28;82518;-73
2022/02/21 02:11:28;;;;;;;42.33;31.10;;;;;;;;;;5025614;28;84785;-74
2022/02/21 02:13:57;;;;;;;31.50;24.88;;;;;;;;;;5024104;28;85053;-73
2022/02/21 02:16:24;;;;;;;33.03;28.00;;;;;;;;;;5025328;28;83594;-74
2022/02/21 02:18:58;;;;;;;37.63;29.25;;;;;;;;;;5024439;28;82296;-74
2022/02/21 02:21:28;;;;;;;42.45;32.17;;;;;;;;;;5024401;28;83681;-74
2022/02/21 02:23:56;;;;;;;46.42;36.25;;;;;;;;;;5024220;28;83915;-74
2022/02/21 02:26:24;;;;;;;53.00;38.13;;;;;;;;;;5025700;28;85125;-74
2022/02/21 02:28:53;;;;;;;52.08;38.72;;;;;;;;;;5025699;28;82437;-74
2022/02/21 02:31:21;;;;;;;55.65;37.40;;;;;;;;;;5024795;28;85888;-74
2022/02/21 02:33:48;;;;;;;53.33;36.28;;;;;;;;;;5025617;28;85036;-74
2022/02/21 02:36:16;;;;;;;46.33;30.77;;;;;;;;;;5023620;28;84357;-74
2022/02/21 02:38:44;;;;;;;45.50;29.20;;;;;;;;;;5025607;28;82412;-74
2022/02/21 02:41:12;;;;;;;38.97;29.40;;;;;;;;;;5023724;28;84612;-74
2022/02/21 02:43:40;;;;;;;38.83;26.35;;;;;;;;;;5025056;28;85055;-74
2022/02/21 02:46:07;;;;;;;39.42;28.30;;;;;;;;;;5023765;28;84660;-74
2022/02/21 02:48:35;;;;;;;39.55;26.30;;;;;;;;;;5026158;28;82507;-74
2022/02/21 02:51:03;;;;;;;37.28;26.92;;;;;;;;;;5023459;28;83277;-74
2022/02/21 02:53:31;;;;;;;36.97;25.67;;;;;;;;;;5023970;28;84819;-74
2022/02/21 02:55:58;;;;;;;32.40;25.13;;;;;;;;;;5024943;28;85032;-74
2022/02/21 02:58:25;;;;;;;33.50;25.52;;;;;;;;;;5023913;28;82431;-74
2022/02/21 03:00:53;;;;;;;33.67;24.05;;;;;;;;;;5024873;28;83116;-74
2022/02/21 03:03:21;;;;;;;31.60;22.92;;;;;;;;;;5024502;28;85927;-74
2022/02/21 03:05:48;;;;;;;27.35;21.33;;;;;;;;;;5023939;28;83809;-74
2022/02/21 03:08:16;;;;;;;28.33;21.33;;;;;;;;;;5024534;28;82470;-75
2022/02/21 03:10:43;;;;;;;30.35;21.33;;;;;;;;;;5024825;28;84064;-75
2022/02/21 03:13:11;;;;;;;28.50;22.90;;;;;;;;;;5024416;28;84959;-75
2022/02/21 03:15:38;;;;;;;26.98;20.92;;;;;;;;;;5023570;28;85271;-75
2022/02/21 03:18:05;;;;;;;30.20;22.58;;;;;;;;;;5024494;28;82614;-74
2022/02/21 03:20:32;;;;;;;32.28;23.52;;;;;;;;;;5023619;28;85266;-73
2022/02/21 03:23:00;;;;;;;28.33;22.77;;;;;;;;;;5023801;28;83984;-73
2022/02/21 03:25:28;;;;;;;27.65;21.00;;;;;;;;;;5024761;28;84999;-74
2022/02/21 03:27:56;;;;;;;31.33;22.17;;;;;;;;;;5023424;28;82608;-74
2022/02/21 03:30:24;;;;;;;28.17;20.65;;;;;;;;;;5023041;28;84668;-74
2022/02/21 03:32:52;;;;;;;29.63;21.98;;;;;;;;;;5020304;28;85332;-73
2022/02/21 03:35:20;;;;;;;28.00;22.45;;;;;;;;;;5022340;28;83477;-74
2022/02/21 03:37:47;;;;;;;33.78;20.70;;;;;;;;;;5024752;28;82484;-72
2022/02/21 03:40:15;;;;;;;29.15;20.92;;;;;;;;;;5024237;28;84106;-72
2022/02/21 03:42:43;;;;;;;32.53;23.83;;;;;;;;;;5023136;28;85508;-75
2022/02/21 03:45:11;;;;;;;32.10;23.65;;;;;;;;;;5023913;28;84149;-73
2022/02/21 03:47:39;;;;;;;35.25;25.80;;;;;;;;;;5024280;28;82432;-73
2022/02/21 03:50:07;;;;;;;39.15;28.17;;;;;;;;;;5024292;28;83212;-73
2022/02/21 03:52:35;;;;;;;37.83;27.10;;;;;;;;;;5023056;28;85598;-75
2022/02/21 03:55:03;;;;;;;36.60;27.50;;;;;;;;;;5025120;28;85279;-74
2022/02/21 03:57:30;;;;;;;28.08;24.92;;;;;;;;;;5026422;28;82449;-74
2022/02/21 03:59:57;;;;;;;36.88;28.50;;;;;;;;;;5026515;28;84830;-74
2022/02/21 04:02:24;;;;;;;39.60;28.10;;;;;;;;;;5027170;28;85330;-74
2022/02/21 04:04:51;;;;;;;39.58;31.95;;;;;;;;;;5027854;28;83529;-74
2022/02/21 04:07:18;;;;;;;41.88;33.65;;;;;;;;;;5026457;28;82459;-73
2022/02/21 04:09:45;;;;;;;46.00;34.97;;;;;;;;;;5026085;28;85491;-74
2022/02/21 04:12:12;;;;;;;44.88;36.60;;;;;;;;;;5026631;28;85248;-74
2022/02/21 04:14:39;;;;;;;40.50;32.72;;;;;;;;;;5026172;28;84860;-74
2022/02/21 04:17:07;;;;;;;40.72;35.00;;;;;;;;;;5026341;28;82352;-74
2022/02/21 04:19:34;;;;;;;43.70;35.13;;;;;;;;;;5026455;28;83961;-75
2022/02/21 04:22:01;;;;;;;42.58;33.72;;;;;;;;;;5020422;28;84945;-74
2022/02/21 04:24:29;;;;;;;43.05;34.75;;;;;;;;;;5022345;28;84825;-75
2022/02/21 04:26:56;;;;;;;41.53;33.40;;;;;;;;;;5020383;28;82447;-74
2022/02/21 04:29:23;;;;;;;43.80;33.63;;;;;;;;;;5021750;28;84403;-73
2022/02/21 04:31:50;;;;;;;43.90;31.98;;;;;;;;;;5023233;28;83826;-74
2022/02/21 04:34:17;;;;;;;36.08;28.80;;;;;;;;;;5022752;28;84600;-74
2022/02/21 04:36:46;;;;;;;34.50;28.00;;;;;;;;;;5024494;28;82390;-75
2022/02/21 04:39:13;;;;;;;34.58;24.67;;;;;;;;;;5024604;28;84496;-75
2022/02/21 04:41:41;;;;;;;30.67;25.83;;;;;;;;;;5024385;28;85098;-72
2022/02/21 04:44:08;;;;;;;37.97;26.02;;;;;;;;;;5025638;28;84795;-74
2022/02/21 04:46:36;;;;;;;25.58;22.13;;;;;;;;;;5023143;28;82663;-73
2022/02/21 04:49:03;;;;;;;25.92;20.88;;;;;;;;;;5024455;28;83050;-72
2022/02/21 04:51:30;;;;;;;26.65;18.80;;;;;;;;;;5022862;28;85379;-72
2022/02/21 04:53:58;;;;;;;25.20;19.30;;;;;;;;;;5023737;28;84314;-73
2022/02/21 04:56:25;;;;;;;23.75;17.98;;;;;;;;;;5021433;28;82748;-73
2022/02/21 04:58:52;;;;;;;24.48;20.00;;;;;;;;;;5024025;28;85328;-75
2022/02/21 05:01:20;;;;;;;20.95;17.52;;;;;;;;;;5022909;28;85160;-74
2022/02/21 05:03:48;;;;;;;20.52;16.42;;;;;;;;;;5026549;28;84670;-74
2022/02/21 05:06:16;;;;;;;21.67;17.63;;;;;;;;;;5025793;28;82472;-75
2022/02/21 05:08:43;;;;;;;21.65;16.15;;;;;;;;;;5025615;28;84446;-75
2022/02/21 05:11:11;;;;;;;19.67;15.98;;;;;;;;;;5025399;28;85591;-75
2022/02/21 05:13:39;;;;;;;26.25;16.63;;;;;;;;;;5024854;28;83939;-74
2022/02/21 05:16:07;;;;;;;18.80;16.42;;;;;;;;;;5025721;28;82364;-75
2022/02/21 05:18:34;;;;;;;19.48;16.15;;;;;;;;;;5024901;28;84039;-74
2022/02/21 05:21:03;;;;;;;19.75;15.40;;;;;;;;;;5025501;28;85308;-75
2022/02/21 05:23:30;;;;;;;19.30;14.77;;;;;;;;;;5025585;28;84745;-74
2022/02/21 05:25:58;;;;;;;21.60;15.52;;;;;;;;;;5025327;28;82491;-74
2022/02/21 05:28:25;;;;;;;19.75;14.52;;;;;;;;;;5025963;28;83272;-74
2022/02/21 05:30:54;;;;;;;14.27;11.50;;;;;;;;;;5026158;28;84995;-74
2022/02/21 05:33:22;;;;;;;14.60;10.70;;;;;;;;;;5024878;28;84793;-74
2022/02/21 05:35:49;;;;;;;14.52;10.50;;;;;;;;;;5026449;28;82829;-74
2022/02/21 05:38:16;;;;;;;15.98;10.95;;;;;;;;;;5026380;28;84225;-74
2022/02/21 05:40:44;;;;;;;12.90;10.80;;;;;;;;;;5024873;28;83907;-74
2022/02/21 05:43:11;;;;;;;18.25;10.63;;;;;;;;;;5025188;28;84951;-74
2022/02/21 05:45:39;;;;;;;15.38;11.73;;;;;;;;;;5024500;28;82449;-75
2022/02/21 05:48:07;;;;;;;17.52;11.25;;;;;;;;;;5017929;28;84161;-74
2022/02/21 05:50:34;;;;;;;13.93;11.50;;;;;;;;;;5019288;28;85118;-75
2022/02/21 05:53:02;;;;;;;13.18;10.13;;;;;;;;;;5024960;28;84926;-74
2022/02/21 05:55:29;;;;;;;13.15;9.45;;;;;;;;;;5025686;28;82439;-74
2022/02/21 05:58:00;;;;;;;16.42;9.50;;;;;;;;;;5026709;28;84848;-74
2022/02/21 06:00:28;;;;;;;14.45;10.13;;;;;;;;;;5025409;28;83150;-74
2022/02/21 06:02:56;;;;;;;14.90;9.20;;;;;;;;;;5025596;28;82455;-74
2022/02/21 06:05:23;;;;;;;13.80;9.32;;;;;;;;;;5027191;28;80977;-74
2022/02/21 06:07:51;;;;;;;13.07;9.88;;;;;;;;;;5025181;28;84633;-74
2022/02/21 06:10:21;;;;;;;12.55;10.82;;;;;;;;;;5026902;28;83468;-74
2022/02/21 06:12:49;;;;;;;13.10;10.25;;;;;;;;;;5024254;28;82730;-74
2022/02/21 06:15:17;;;;;;;13.90;11.95;;;;;;;;;;5024191;28;82416;-73
2022/02/21 06:17:44;;;;;;;19.90;13.18;;;;;;;;;;5020621;28;84847;-74
2022/02/21 06:20:12;;;;;;;16.65;12.00;;;;;;;;;;5022105;28;85911;-76
2022/02/21 06:22:39;;;;;;;19.83;12.90;;;;;;;;;;5021983;28;83859;-74
2022/02/21 06:25:07;;;;;;;13.57;10.32;;;;;;;;;;5022025;28;84598;-73
2022/02/21 06:27:36;;;;;;;15.02;11.77;;;;;;;;;;5022270;28;83990;-73
2022/02/21 06:30:04;;;;;;;16.10;11.07;;;;;;;;;;5022405;28;83753;-74
2022/02/21 06:32:32;;;;;;;15.45;13.75;;;;;;;;;;5022070;28;84139;-74
2022/02/21 06:35:00;;;;;;;18.15;12.13;;;;;;;;;;5026852;28;82570;-71
2022/02/21 06:37:28;;;;;;;14.20;11.05;;;;;;;;;;5020852;28;84551;-77
2022/02/21 06:39:55;;;;;;;18.40;14.85;;;;;;;;;;5022371;28;84787;-75
2022/02/21 06:42:22;;;;;;;20.45;14.27;;;;;;;;;;5017592;28;85252;-75
2022/02/21 06:44:50;;;;;;;19.73;14.25;;;;;;;;;;5021662;28;82592;-70
2022/02/21 06:47:20;;;;;;;19.05;13.27;;;;;;;;;;5022021;28;82672;-71
2022/02/21 06:49:48;;;;;;;19.73;11.98;;;;;;;;;;5019902;28;84055;-79
2022/02/21 06:52:15;;;;;;;16.17;10.90;;;;;;;;;;5022516;28;83787;-74
2022/02/21 06:54:42;;;;;;;10.80;9.70;;;;;;;;;;5006602;28;83240;-72
2022/02/21 06:57:11;;;;;;;14.55;10.95;;;;;;;;;;5021154;28;84670;-73
2022/02/21 06:59:37;;;;;;;17.48;10.30;;;;;;;;;;5018095;28;84433;-73
2022/02/21 07:02:06;;;;;;;12.25;9.13;;;;;;;;;;5020955;28;84266;-72
2022/02/21 07:04:33;;;;;;;15.43;8.90;;;;;;;;;;5022015;28;82019;-73
2022/02/21 07:07:01;;;;;;;10.65;8.73;;;;;;;;;;5019880;28;84783;-73
2022/02/21 07:09:29;;;;;;;15.73;8.38;;;;;;;;;;5023669;28;85172;-73
2022/02/21 07:11:57;;;;;;;11.55;8.48;;;;;;;;;;5023518;28;82712;-75
2022/02/21 07:14:25;;;;;;;13.23;10.27;;;;;;;;;;5024599;28;81902;-73
2022/02/21 07:16:54;;;;;;;13.00;10.00;;;;;;;;;;5022916;28;83407;-73
2022/02/21 07:19:23;;;;;;;32.65;10.90;;;;;;;;;;5022852;28;85097;-74
2022/02/21 07:21:50;;;;;;;12.73;10.02;;;;;;;;;;5023694;28;84645;-73
2022/02/21 07:24:18;;;;;;;16.50;12.25;;;;;;;;;;5023271;28;82882;-73
2022/02/21 07:26:47;;;;;;;16.02;11.85;;;;;;;;;;5022612;28;85590;-76
2022/02/21 07:29:36;;;;;;;20.33;13.63;;;;;;;;;;5024295;28;85332;-73
2022/02/21 07:32:08;;;;;;;20.65;14.73;;;;;;;;;;5014045;28;83016;-73
2022/02/21 07:34:42;;;;;;;22.60;16.67;;;;;;;;;;5011224;28;82467;-73
2022/02/21 07:37:12;;;;;;;81.32;19.10;;;;;;;;;;5027773;28;83084;-73
2022/02/21 07:39:39;;;;;;;32.05;17.83;;;;;;;;;;5026191;28;86049;-75
2022/02/21 07:42:07;;;;;;;27.65;15.23;;;;;;;;;;5027152;28;83005;-76
2022/02/21 07:44:35;;;;;;;69.95;18.75;;;;;;;;;;4994212;28;82367;-77
2022/02/21 07:47:02;;;;;;;154.27;27.95;;;;;;;;;;5026359;28;84943;-75
2022/02/21 07:49:30;;;;;;;28.75;13.65;;;;;;;;;;5026912;28;83454;-75
2022/02/21 07:51:57;;;;;;;17.77;10.80;;;;;;;;;;5026821;28;82728;-75
2022/02/21 07:54:25;;;;;;;54.83;17.48;;;;;;;;;;5026650;28;82281;-75
2022/02/21 07:57:08;;;;;;;36.05;17.00;;;;;;;;;;5027608;28;85135;-75
2022/02/21 07:59:35;;;;;;;26.70;15.85;;;;;;;;;;5026588;28;85303;-73
2022/02/21 08:02:03;;;;;;;22.70;15.95;;;;;;;;;;5027125;28;83051;-73
2022/02/21 08:04:30;;;;;;;27.30;14.95;;;;;;;;;;5026632;28;82236;-74
2022/02/21 08:06:57;;;;;;;40.97;16.20;;;;;;;;;;5025785;28;84435;-74
2022/02/21 08:09:25;;;;;;;17.13;12.52;;;;;;;;;;5028008;28;84983;-74
2022/02/21 08:11:53;;;;;;;21.67;12.52;;;;;;;;;;5026151;28;84581;-74
2022/02/21 08:14:22;;;;;;;22.77;11.60;;;;;;;;;;5026257;28;82398;-74
2022/02/21 08:16:50;;;;;;;33.00;11.10;;;;;;;;;;5025603;28;85204;-74
2022/02/21 08:19:17;;;;;;;13.57;10.18;;;;;;;;;;5027589;28;85474;-74
2022/02/21 08:21:45;;;;;;;25.50;11.13;;;;;;;;;;5026180;28;85239;-74
2022/02/21 08:24:12;;;;;;;14.85;10.25;;;;;;;;;;5025559;28;83055;-74
2022/02/21 08:26:39;;;;;;;16.45;10.63;;;;;;;;;;5026062;28;82578;-75
2022/02/21 08:29:07;;;;;;;45.40;13.30;;;;;;;;;;5025561;28;85514;-75
2022/02/21 08:31:35;;;;;;;17.67;11.40;;;;;;;;;;5026108;28;85182;-75
2022/02/21 08:34:02;;;;;;;20.42;10.80;;;;;;;;;;5026011;28;82393;-75
2022/02/21 08:36:30;;;;;;;21.52;11.77;;;;;;;;;;5027232;28;84564;-74
2022/02/21 08:38:57;;;;;;;16.92;13.63;;;;;;;;;;5026771;28;85530;-75
2022/02/21 08:41:26;;;;;;;22.73;15.25;;;;;;;;;;5025395;28;84795;-75
2022/02/21 08:43:54;;;;;;;17.98;14.77;;;;;;;;;;5027126;28;82292;-74
2022/02/21 08:46:22;;;;;;;31.48;15.00;;;;;;;;;;5026085;28;84213;-74
2022/02/21 08:49:05;;;;;;;22.60;15.68;;;;;;;;;;5026854;28;85110;-74
2022/02/21 08:51:33;;;;;;;28.23;17.20;;;;;;;;;;5026804;28;83763;-75
2022/02/21 08:54:01;;;;;;;19.25;14.93;;;;;;;;;;5026530;28;82400;-74
2022/02/21 08:56:32;;;;;;;19.60;15.35;;;;;;;;;;5025546;28;83897;-74
2022/02/21 08:58:59;;;;;;;22.15;16.25;;;;;;;;;;5026954;28;85094;-75
2022/02/21 09:01:26;;;;;;;22.38;14.98;;;;;;;;;;5025271;28;83948;-75
2022/02/21 09:03:54;;;;;;;19.77;14.93;;;;;;;;;;5026826;28;82397;-75
2022/02/21 09:06:21;;;;;;;21.85;15.65;;;;;;;;;;5026224;28;84680;-74
2022/02/21 09:08:50;;;;;;;19.23;16.63;;;;;;;;;;5025476;28;85431;-75
2022/02/21 09:11:18;;;;;;;24.48;19.35;;;;;;;;;;5024776;28;84506;-75
2022/02/21 09:13:45;;;;;;;37.67;21.33;;;;;;;;;;5025920;28;82500;-74
2022/02/21 09:16:13;;;;;;;39.35;23.63;;;;;;;;;;5025012;28;84965;-75
2022/02/21 09:18:40;;;;;;;30.90;20.92;;;;;;;;;;5025498;28;85671;-75
2022/02/21 09:21:08;;;;;;;51.88;20.85;;;;;;;;;;5025588;28;84787;-75
2022/02/21 09:23:35;;;;;;;35.28;19.40;;;;;;;;;;5025378;28;82460;-75
2022/02/21 09:26:02;;;;;;;24.08;15.85;;;;;;;;;;5024910;28;84121;-75
2022/02/21 09:28:29;;;;;;;22.55;13.60;;;;;;;;;;5026166;28;85365;-75
2022/02/21 09:30:56;;;;;;;15.27;13.15;;;;;;;;;;5025119;28;82961;-75
2022/02/21 09:33:24;;;;;;;17.98;12.88;;;;;;;;;;5026088;28;82382;-75
2022/02/21 09:35:54;;;;;;;16.15;13.73;;;;;;;;;;5026029;28;84213;-74
2022/02/21 09:38:22;;;;;;;16.35;13.77;;;;;;;;;;5025649;28;85274;-74
2022/02/21 09:40:50;;;;;;;25.00;19.25;;;;;;;;;;5026148;28;84666;-75
2022/02/21 09:43:19;;;;;;;33.05;22.38;;;;;;;;;;5024969;28;82467;-74
2022/02/21 09:45:47;;;;;;;32.90;21.80;;;;;;;;;;5025790;28;84591;-74
2022/02/21 09:48:15;;;;;;;30.20;22.45;;;;;;;;;;5024752;28;85332;-74
2022/02/21 09:50:48;;;;;;;32.30;23.20;;;;;;;;;;5024674;28;84862;-75
2022/02/21 09:53:16;;;;;;;34.10;19.70;;;;;;;;;;5024183;28;82355;-75
2022/02/21 09:55:43;;;;;;;23.42;17.40;;;;;;;;;;5024280;28;85749;-75
2022/02/21 09:58:12;;;;;;;22.73;17.13;;;;;;;;;;5024895;28;84044;-75
2022/02/21 10:00:39;;;;;;;19.30;13.63;;;;;;;;;;5025713;28;85148;-75
2022/02/21 10:03:07;;;;;;;21.52;13.65;;;;;;;;;;5024673;28;82303;-75
2022/02/21 10:05:34;;;;;;;23.77;17.58;;;;;;;;;;5024345;28;84018;-75
2022/02/21 10:08:08;;;;;;;24.88;20.73;;;;;;;;;;5024638;28;84298;-75
2022/02/21 10:10:37;;;;;;;32.45;19.83;;;;;;;;;;5025403;28;85325;-75
2022/02/21 10:13:05;;;;;;;26.50;18.15;;;;;;;;;;5025020;28;82510;-75
2022/02/21 10:15:34;;;;;;;22.88;18.48;;;;;;;;;;5023681;28;83101;-74
2022/02/21 10:18:18;;;;;;;26.90;17.55;;;;;;;;;;5024242;28;84927;-74
2022/02/21 10:20:59;;;;;;;26.23;16.48;;;;;;;;;;5023572;28;86522;-75
2022/02/21 10:23:34;;;;;;;17.63;14.63;;;;;;;;;;5025659;28;82412;-74
2022/02/21 10:26:04;;;;;;;23.73;12.43;;;;;;;;;;5024241;28;84643;-75
2022/02/21 10:28:56;;;;;;;15.88;8.55;;;;;;;;;;5024057;28;85137;-75
2022/02/21 10:31:24;;;;;;;17.50;11.15;;;;;;;;;;5025185;28;84152;-75
2022/02/21 10:34:01;;;;;;;15.88;10.55;;;;;;;;;;5024093;28;82367;-76
2022/02/21 10:36:43;;;;;;;19.75;10.18;;;;;;;;;;5025391;28;84647;-75
2022/02/21 10:39:18;;;;;;;17.33;11.20;;;;;;;;;;5024429;28;85427;-73
2022/02/21 10:41:45;;;;;;;16.48;10.43;;;;;;;;;;5025362;28;85035;-73
2022/02/21 10:44:35;;;;;;;12.55;10.00;;;;;;;;;;5025945;28;82321;-73
2022/02/21 10:47:21;;;;;;;12.50;9.52;;;;;;;;;;5023131;28;85736;-73
2022/02/21 10:49:56;;;;;;;16.98;8.27;;;;;;;;;;5025714;28;84812;-74
2022/02/21 10:52:30;;;;;;;11.25;7.97;;;;;;;;;;5025964;28;82334;-73
2022/02/21 10:54:58;;;;;;;15.88;7.85;;;;;;;;;;5025839;28;81853;-74
2022/02/21 10:57:27;;;;;;;11.70;8.15;;;;;;;;;;5026006;28;84641;-75
2022/02/21 10:59:56;;;;;;;12.82;8.05;;;;;;;;;;5024187;28;82985;-74
2022/02/21 11:02:25;;;;;;;11.93;8.05;;;;;;;;;;5024969;28;81785;-74
2022/02/21 11:04:55;;;;;;;17.58;8.70;;;;;;;;;;5028402;28;81227;-74
2022/02/21 11:07:22;;;;;;;20.27;8.52;;;;;;;;;;5028248;28;84527;-75
2022/02/21 11:09:51;;;;;;;13.07;8.50;;;;;;;;;;5028922;28;83337;-74
2022/02/21 11:12:20;;;;;;;10.88;8.20;;;;;;;;;;5027786;28;82810;-74
2022/02/21 11:14:49;;;;;;;14.98;8.38;;;;;;;;;;5027665;28;81973;-74
2022/02/21 11:17:18;;;;;;;10.50;7.57;;;;;;;;;;5028718;28;84721;-74
2022/02/21 11:19:45;;;;;;;11.80;8.02;;;;;;;;;;5028129;28;84776;-75
2022/02/21 11:22:17;;;;;;;12.35;8.15;;;;;;;;;;5028098;28;82598;-74
2022/02/21 11:24:51;;;;;;;15.02;8.48;;;;;;;;;;5028292;28;81793;-75
2022/02/21 11:27:28;;;;;;;12.30;8.38;;;;;;;;;;5027866;28;84516;-75
2022/02/21 11:30:05;;;;;;;14.52;9.45;;;;;;;;;;5027998;28;83407;-74
2022/02/21 11:32:32;;;;;;;13.30;8.20;;;;;;;;;;5027776;28;81915;-74
2022/02/21 11:35:19;;;;;;;11.77;9.07;;;;;;;;;;5029304;28;81662;-74
2022/02/21 11:37:46;;;;;;;15.63;9.15;;;;;;;;;;5017830;28;86064;-75
2022/02/21 11:40:14;;;;;;;11.13;9.60;;;;;;;;;;5025515;28;85476;-74
2022/02/21 11:42:48;;;;;;;24.95;13.10;;;;;;;;;;5028673;28;82343;-74
2022/02/21 11:45:27;;;;;;;17.08;10.48;;;;;;;;;;5020550;28;82307;-74
2022/02/21 11:48:16;;;;;;;21.58;13.07;;;;;;;;;;5021912;28;84423;-75
2022/02/21 11:50:45;;;;;;;21.73;13.10;;;;;;;;;;5027529;28;84990;-75
2022/02/21 11:53:29;;;;;;;15.48;12.30;;;;;;;;;;5026342;28;85614;-75
2022/02/21 11:55:56;;;;;;;17.13;11.70;;;;;;;;;;5027320;28;82391;-75
2022/02/21 11:58:23;;;;;;;17.42;15.18;;;;;;;;;;5027727;28;84564;-75
2022/02/21 12:00:53;;;;;;;19.30;13.55;;;;;;;;;;5027606;28;85346;-74
2022/02/21 12:03:23;;;;;;;28.27;14.30;;;;;;;;;;5027331;28;84154;-74
2022/02/21 12:05:56;;;;;;;27.67;14.75;;;;;;;;;;5026767;28;82568;-75
2022/02/21 12:08:41;;;;;;;19.25;15.15;;;;;;;;;;5027351;28;84631;-75
2022/02/21 12:11:14;;;;;;;25.15;19.15;;;;;;;;;;5026552;28;83999;-75
2022/02/21 12:13:50;;;;;;;20.15;16.42;;;;;;;;;;5026341;28;84892;-75
2022/02/21 12:16:21;;;;;;;24.23;17.27;;;;;;;;;;5020726;28;84237;-77
2022/02/21 12:18:57;;;;;;;23.60;17.90;;;;;;;;;;5027667;28;84759;-76
2022/02/21 12:21:26;;;;;;;26.45;15.40;;;;;;;;;;5027491;28;84974;-76
2022/02/21 12:24:00;;;;;;;26.45;15.15;;;;;;;;;;5026414;28;84868;-76
2022/02/21 12:26:37;;;;;;;22.23;15.97;;;;;;;;;;5027459;28;82372;-77
2022/02/21 12:29:18;;;;;;;24.25;14.27;;;;;;;;;;5027455;28;85161;-77
2022/02/21 12:32:07;;;;;;;21.48;14.75;;;;;;;;;;5026992;28;84891;-77
2022/02/21 12:34:36;;;;;;;23.38;15.85;;;;;;;;;;5026244;28;83660;-77
2022/02/21 12:37:08;;;;;;;22.05;18.98;;;;;;;;;;5026007;28;82356;-77
2022/02/21 12:39:43;;;;;;;33.78;16.38;;;;;;;;;;5026085;28;84091;-77
2022/02/21 12:42:11;;;;;;;19.63;14.93;;;;;;;;;;5025499;28;85460;-77
2022/02/21 12:44:39;;;;;;;38.42;17.65;;;;;;;;;;5027081;28;85129;-77
2022/02/21 12:47:06;;;;;;;25.92;17.20;;;;;;;;;;5026801;28;82450;-76
2022/02/21 12:49:35;;;;;;;27.00;14.25;;;;;;;;;;5025996;28;84865;-76
2022/02/21 12:52:06;;;;;;;18.17;16.17;;;;;;;;;;5005571;28;85078;-77
2022/02/21 12:54:53;;;;;;;19.55;15.85;;;;;;;;;;5018237;28;85055;-77
2022/02/21 12:57:22;;;;;;;23.60;16.33;;;;;;;;;;5026556;28;83308;-76
2022/02/21 12:59:51;;;;;;;19.35;15.45;;;;;;;;;;5025737;28;84667;-75
2022/02/21 13:02:20;;;;;;;24.10;17.20;;;;;;;;;;5026876;28;84674;-75
2022/02/21 13:04:48;;;;;;;23.92;17.17;;;;;;;;;;5026764;28;84683;-75
2022/02/21 13:07:15;;;;;;;34.35;18.85;;;;;;;;;;5026551;28;82324;-76
2022/02/21 13:09:44;;;;;;;22.02;17.55;;;;;;;;;;5026330;28;84161;-75
2022/02/21 13:12:20;;;;;;;25.40;18.17;;;;;;;;;;5026716;28;85344;-75
2022/02/21 13:14:48;;;;;;;28.08;19.48;;;;;;;;;;5026244;28;84907;-75
2022/02/21 13:17:16;;;;;;;24.65;18.33;;;;;;;;;;5025995;28;82322;-74
2022/02/21 13:19:45;;;;;;;29.08;17.73;;;;;;;;;;5025913;28;85565;-74
2022/02/21 13:22:19;;;;;;;27.52;19.92;;;;;;;;;;5026581;28;85527;-75
2022/02/21 13:24:48;;;;;;;31.08;19.05;;;;;;;;;;5027257;28;85019;-74
2022/02/21 13:27:23;;;;;;;24.42;17.05;;;;;;;;;;5025431;28;82258;-74
2022/02/21 13:29:51;;;;;;;;;;;;;;;;;;5026362;28;84576;-74
2022/02/21 13:32:30;;;;;;;28.15;19.65;;;;;;;;;;5028006;28;82511;-74
2022/02/21 13:35:12;;;;;;;26.63;18.05;;;;;;;;;;5026346;28;82658;-75
2022/02/21 13:37:41;;;;;;;27.77;18.27;;;;;;;;;;5015883;28;82335;-74
2022/02/21 13:40:11;;;;;;;29.27;17.55;;;;;;;;;;5026076;28;83057;-74
2022/02/21 13:42:41;;;;;;;26.20;19.15;;;;;;;;;;5026021;28;85468;-75
2022/02/21 13:45:24;;;;;;;25.42;20.17;;;;;;;;;;5024725;28;85369;-75
2022/02/21 13:48:08;;;;;;;39.90;30.48;;;;;;;;;;5025160;28;82330;-75
2022/02/21 13:50:40;;;;;;;35.42;25.52;;;;;;;;;;5026376;28;83711;-75
2022/02/21 13:53:22;;;;;;;32.05;23.60;;;;;;;;;;5025330;28;84440;-75
2022/02/21 13:56:09;;;;;;;31.73;21.45;;;;;;;;;;5024422;28;84202;-75
2022/02/21 13:58:37;;;;;;;35.75;25.95;;;;;;;;;;5026125;28;82546;-74
2022/02/21 14:01:27;;;;;;;233.88;101.78;;;;;;;;;;5026087;28;83078;-74
2022/02/21 14:04:06;;;;;;;241.88;106.03;;;;;;;;;;5024727;28;87610;-74
2022/02/21 14:06:38;;;;;;;127.15;59.97;;;;;;;;;;5024049;28;87512;-74
2022/02/21 14:09:22;;;;;;;146.75;69.13;;;;;;;;;;5024328;28;82609;-74
2022/02/21 14:11:51;;;;;;;41.55;23.70;;;;;;;;;;5025592;28;85343;-74
2022/02/21 14:14:22;;;;;;;29.38;20.73;;;;;;;;;;5025234;28;85541;-74
2022/02/21 14:16:50;;;;;;;21.92;16.65;;;;;;;;;;5025334;28;82369;-74
2022/02/21 14:19:20;;;;;;;27.80;19.75;;;;;;;;;;5024326;28;82323;-74
2022/02/21 14:21:55;;;;;;;21.58;12.88;;;;;;;;;;5024497;28;84839;-74
2022/02/21 14:24:23;;;;;;;16.17;12.07;;;;;;;;;;5025022;28;83943;-74
2022/02/21 14:26:52;;;;;;;18.58;11.43;;;;;;;;;;5025374;28;85471;-74
2022/02/21 14:29:19;;;;;;;14.95;11.52;;;;;;;;;;5024766;28;82488;-74
2022/02/21 14:31:46;;;;;;;14.35;10.38;;;;;;;;;;5025652;28;83608;-74